Terminal Aerodrome Forecast
Issued by NWS Corpus Christi, TX

Home | Current Version | Previous Version | Text Only | Print | Product List | Glossary On
Versions: 1 2 3 4 5 6 7 8 9 10 11 12 13 14 15
000
FTUS44 KCRP 010938 AAA
TAFVCT
TAF AMD
KVCT 010938Z 0110/0206 14003KT P6SM VCSH SCT022 SCT200
     FM011200 VRB03KT P6SM VCTS SCT024CB BKN035
     FM011500 12008KT P6SM VCTS BKN035CB OVC120
     FM012200 14011KT P6SM FEW025 BKN100=

USA.gov is the U.S. government's official web portal to all federal, state and local government web resources and services.